sensor_id;sensor_type;location;lat;lon;timestamp;P1;durP1;ratioP1;P2;durP2;ratioP2
46090;SDS011;31826;53.572;10.170;2023-11-22T00:01:21;5.57;;;2.35;;
46090;SDS011;31826;53.572;10.170;2023-11-22T00:03:47;7.97;;;2.50;;
46090;SDS011;31826;53.572;10.170;2023-11-22T00:06:13;5.07;;;2.17;;
46090;SDS011;31826;53.572;10.170;2023-11-22T00:08:39;6.68;;;2.55;;
46090;SDS011;31826;53.572;10.170;2023-11-22T00:11:05;5.57;;;2.40;;
46090;SDS011;31826;53.572;10.170;2023-11-22T00:13:30;6.78;;;2.50;;
46090;SDS011;31826;53.572;10.170;2023-11-22T00:15:57;7.45;;;3.25;;
46090;SDS011;31826;53.572;10.170;2023-11-22T00:18:23;6.25;;;2.40;;
46090;SDS011;31826;53.572;10.170;2023-11-22T00:20:49;4.38;;;2.30;;
46090;SDS011;31826;53.572;10.170;2023-11-22T00:23:15;6.83;;;2.67;;
46090;SDS011;31826;53.572;10.170;2023-11-22T00:25:41;7.00;;;2.67;;
46090;SDS011;31826;53.572;10.170;2023-11-22T00:28:07;6.00;;;2.40;;
46090;SDS011;31826;53.572;10.170;2023-11-22T00:30:33;5.53;;;2.53;;
46090;SDS011;31826;53.572;10.170;2023-11-22T00:32:58;4.82;;;2.38;;
46090;SDS011;31826;53.572;10.170;2023-11-22T00:35:24;5.80;;;2.17;;
46090;SDS011;31826;53.572;10.170;2023-11-22T00:37:50;6.90;;;2.70;;
46090;SDS011;31826;53.572;10.170;2023-11-22T00:40:15;5.33;;;2.50;;
46090;SDS011;31826;53.572;10.170;2023-11-22T00:42:41;7.03;;;2.53;;
46090;SDS011;31826;53.572;10.170;2023-11-22T00:45:08;5.95;;;2.75;;
46090;SDS011;31826;53.572;10.170;2023-11-22T00:47:35;6.63;;;2.58;;
46090;SDS011;31826;53.572;10.170;2023-11-22T00:50:01;6.38;;;2.60;;
46090;SDS011;31826;53.572;10.170;2023-11-22T00:52:29;7.00;;;2.70;;
46090;SDS011;31826;53.572;10.170;2023-11-22T00:54:58;5.40;;;2.53;;
46090;SDS011;31826;53.572;10.170;2023-11-22T00:57:25;7.97;;;2.60;;
46090;SDS011;31826;53.572;10.170;2023-11-22T00:59:52;6.20;;;2.65;;
46090;SDS011;31826;53.572;10.170;2023-11-22T01:02:19;6.65;;;2.50;;
46090;SDS011;31826;53.572;10.170;2023-11-22T01:04:45;6.57;;;2.72;;
46090;SDS011;31826;53.572;10.170;2023-11-22T01:07:11;4.68;;;2.50;;
46090;SDS011;31826;53.572;10.170;2023-11-22T01:09:37;5.15;;;2.33;;
46090;SDS011;31826;53.572;10.170;2023-11-22T01:12:02;5.32;;;2.45;;
46090;SDS011;31826;53.572;10.170;2023-11-22T01:14:28;5.72;;;2.50;;
46090;SDS011;31826;53.572;10.170;2023-11-22T01:16:54;6.10;;;2.50;;
46090;SDS011;31826;53.572;10.170;2023-11-22T01:19:20;5.25;;;2.75;;
46090;SDS011;31826;53.572;10.170;2023-11-22T01:21:46;4.57;;;2.33;;
46090;SDS011;31826;53.572;10.170;2023-11-22T01:24:12;6.25;;;2.60;;
46090;SDS011;31826;53.572;10.170;2023-11-22T01:26:38;7.35;;;2.85;;
46090;SDS011;31826;53.572;10.170;2023-11-22T01:29:04;7.20;;;2.88;;
46090;SDS011;31826;53.572;10.170;2023-11-22T01:31:30;8.00;;;2.50;;
46090;SDS011;31826;53.572;10.170;2023-11-22T01:33:57;5.87;;;2.90;;
46090;SDS011;31826;53.572;10.170;2023-11-22T01:36:26;5.57;;;2.70;;
46090;SDS011;31826;53.572;10.170;2023-11-22T01:38:52;5.88;;;2.90;;
46090;SDS011;31826;53.572;10.170;2023-11-22T01:41:18;6.55;;;2.53;;
46090;SDS011;31826;53.572;10.170;2023-11-22T01:43:44;6.45;;;3.05;;
46090;SDS011;31826;53.572;10.170;2023-11-22T01:46:17;6.20;;;2.83;;
46090;SDS011;31826;53.572;10.170;2023-11-22T01:48:51;6.35;;;2.75;;
46090;SDS011;31826;53.572;10.170;2023-11-22T01:51:22;7.53;;;2.92;;
46090;SDS011;31826;53.572;10.170;2023-11-22T01:53:49;6.80;;;2.60;;
46090;SDS011;31826;53.572;10.170;2023-11-22T01:56:19;7.57;;;3.20;;
46090;SDS011;31826;53.572;10.170;2023-11-22T01:58:46;7.68;;;2.90;;
46090;SDS011;31826;53.572;10.170;2023-11-22T02:01:12;8.43;;;3.15;;
46090;SDS011;31826;53.572;10.170;2023-11-22T02:03:38;7.63;;;2.67;;
46090;SDS011;31826;53.572;10.170;2023-11-22T02:06:04;6.03;;;2.90;;
46090;SDS011;31826;53.572;10.170;2023-11-22T02:08:31;7.63;;;2.80;;
46090;SDS011;31826;53.572;10.170;2023-11-22T02:10:59;8.00;;;2.90;;
46090;SDS011;31826;53.572;10.170;2023-11-22T02:13:28;8.13;;;3.20;;
46090;SDS011;31826;53.572;10.170;2023-11-22T02:15:55;6.72;;;2.67;;
46090;SDS011;31826;53.572;10.170;2023-11-22T02:18:23;5.97;;;2.75;;
46090;SDS011;31826;53.572;10.170;2023-11-22T02:20:51;13.03;;;3.37;;
46090;SDS011;31826;53.572;10.170;2023-11-22T02:23:16;6.90;;;2.67;;
46090;SDS011;31826;53.572;10.170;2023-11-22T02:25:43;6.78;;;2.70;;
46090;SDS011;31826;53.572;10.170;2023-11-22T02:28:10;6.18;;;3.00;;
46090;SDS011;31826;53.572;10.170;2023-11-22T02:30:37;6.80;;;3.00;;
46090;SDS011;31826;53.572;10.170;2023-11-22T02:33:03;8.23;;;3.28;;
46090;SDS011;31826;53.572;10.170;2023-11-22T02:35:32;6.90;;;3.20;;
46090;SDS011;31826;53.572;10.170;2023-11-22T02:37:58;8.47;;;3.50;;
46090;SDS011;31826;53.572;10.170;2023-11-22T02:40:25;7.28;;;2.95;;
46090;SDS011;31826;53.572;10.170;2023-11-22T02:42:51;9.77;;;3.27;;
46090;SDS011;31826;53.572;10.170;2023-11-22T02:45:26;10.00;;;3.15;;
46090;SDS011;31826;53.572;10.170;2023-11-22T02:47:53;7.93;;;3.38;;
46090;SDS011;31826;53.572;10.170;2023-11-22T02:50:19;6.43;;;3.08;;
46090;SDS011;31826;53.572;10.170;2023-11-22T02:52:45;7.67;;;2.90;;
46090;SDS011;31826;53.572;10.170;2023-11-22T02:55:11;7.10;;;3.15;;
46090;SDS011;31826;53.572;10.170;2023-11-22T02:57:39;9.50;;;3.43;;
46090;SDS011;31826;53.572;10.170;2023-11-22T03:00:06;7.80;;;3.50;;
46090;SDS011;31826;53.572;10.170;2023-11-22T03:02:33;7.85;;;3.53;;
46090;SDS011;31826;53.572;10.170;2023-11-22T03:04:59;7.85;;;3.38;;
46090;SDS011;31826;53.572;10.170;2023-11-22T03:07:25;8.52;;;3.40;;
46090;SDS011;31826;53.572;10.170;2023-11-22T03:09:51;10.10;;;3.53;;
46090;SDS011;31826;53.572;10.170;2023-11-22T03:12:18;8.50;;;3.83;;
46090;SDS011;31826;53.572;10.170;2023-11-22T03:14:45;8.07;;;3.70;;
46090;SDS011;31826;53.572;10.170;2023-11-22T03:17:11;9.48;;;3.97;;
46090;SDS011;31826;53.572;10.170;2023-11-22T03:19:38;9.70;;;3.97;;
46090;SDS011;31826;53.572;10.170;2023-11-22T03:22:05;8.07;;;3.60;;
46090;SDS011;31826;53.572;10.170;2023-11-22T03:24:31;8.63;;;3.60;;
46090;SDS011;31826;53.572;10.170;2023-11-22T03:27:02;8.90;;;3.60;;
46090;SDS011;31826;53.572;10.170;2023-11-22T03:29:28;8.13;;;3.42;;
46090;SDS011;31826;53.572;10.170;2023-11-22T03:31:54;7.72;;;3.28;;
46090;SDS011;31826;53.572;10.170;2023-11-22T03:34:20;6.90;;;3.17;;
46090;SDS011;31826;53.572;10.170;2023-11-22T03:36:46;7.03;;;3.30;;
46090;SDS011;31826;53.572;10.170;2023-11-22T03:39:12;8.15;;;3.33;;
46090;SDS011;31826;53.572;10.170;2023-11-22T03:41:40;7.75;;;3.35;;
46090;SDS011;31826;53.572;10.170;2023-11-22T03:44:07;6.90;;;3.47;;
46090;SDS011;31826;53.572;10.170;2023-11-22T03:46:38;7.70;;;3.10;;
46090;SDS011;31826;53.572;10.170;2023-11-22T03:49:05;7.40;;;3.47;;
46090;SDS011;31826;53.572;10.170;2023-11-22T03:51:34;7.18;;;3.55;;
46090;SDS011;31826;53.572;10.170;2023-11-22T03:54:01;9.60;;;3.65;;
46090;SDS011;31826;53.572;10.170;2023-11-22T03:56:27;7.75;;;3.55;;
46090;SDS011;31826;53.572;10.170;2023-11-22T03:58:54;10.10;;;3.80;;
46090;SDS011;31826;53.572;10.170;2023-11-22T04:01:20;9.67;;;3.53;;
46090;SDS011;31826;53.572;10.170;2023-11-22T04:03:49;7.77;;;3.50;;
46090;SDS011;31826;53.572;10.170;2023-11-22T04:06:15;8.38;;;3.42;;
46090;SDS011;31826;53.572;10.170;2023-11-22T04:08:42;9.07;;;3.95;;
46090;SDS011;31826;53.572;10.170;2023-11-22T04:11:09;7.97;;;3.70;;
46090;SDS011;31826;53.572;10.170;2023-11-22T04:13:35;7.53;;;3.40;;
46090;SDS011;31826;53.572;10.170;2023-11-22T04:16:01;8.57;;;3.65;;
46090;SDS011;31826;53.572;10.170;2023-11-22T04:18:27;8.85;;;3.03;;
46090;SDS011;31826;53.572;10.170;2023-11-22T04:20:53;8.48;;;3.70;;
46090;SDS011;31826;53.572;10.170;2023-11-22T04:23:20;8.40;;;3.72;;
46090;SDS011;31826;53.572;10.170;2023-11-22T04:25:46;10.75;;;3.28;;
46090;SDS011;31826;53.572;10.170;2023-11-22T04:28:14;10.23;;;3.60;;
46090;SDS011;31826;53.572;10.170;2023-11-22T04:30:40;8.43;;;3.47;;
46090;SDS011;31826;53.572;10.170;2023-11-22T04:33:06;8.55;;;3.83;;
46090;SDS011;31826;53.572;10.170;2023-11-22T04:35:32;8.50;;;3.40;;
46090;SDS011;31826;53.572;10.170;2023-11-22T04:38:01;8.90;;;3.90;;
46090;SDS011;31826;53.572;10.170;2023-11-22T04:40:28;9.70;;;3.77;;
46090;SDS011;31826;53.572;10.170;2023-11-22T04:42:54;7.88;;;3.83;;
46090;SDS011;31826;53.572;10.170;2023-11-22T04:45:20;12.02;;;5.15;;
46090;SDS011;31826;53.572;10.170;2023-11-22T04:47:46;12.25;;;5.13;;
46090;SDS011;31826;53.572;10.170;2023-11-22T04:50:12;11.35;;;4.80;;
46090;SDS011;31826;53.572;10.170;2023-11-22T04:52:38;10.63;;;4.57;;
46090;SDS011;31826;53.572;10.170;2023-11-22T04:55:04;8.60;;;3.92;;
46090;SDS011;31826;53.572;10.170;2023-11-22T04:57:30;9.55;;;4.40;;
46090;SDS011;31826;53.572;10.170;2023-11-22T04:59:56;10.98;;;4.68;;
46090;SDS011;31826;53.572;10.170;2023-11-22T05:02:22;12.60;;;6.03;;
46090;SDS011;31826;53.572;10.170;2023-11-22T05:04:48;10.37;;;4.40;;
46090;SDS011;31826;53.572;10.170;2023-11-22T05:07:15;9.57;;;4.25;;
46090;SDS011;31826;53.572;10.170;2023-11-22T05:09:41;11.00;;;5.00;;
46090;SDS011;31826;53.572;10.170;2023-11-22T05:12:08;13.30;;;5.40;;
46090;SDS011;31826;53.572;10.170;2023-11-22T05:14:35;15.85;;;6.35;;
46090;SDS011;31826;53.572;10.170;2023-11-22T05:17:01;15.93;;;7.05;;
46090;SDS011;31826;53.572;10.170;2023-11-22T05:19:27;13.27;;;5.43;;
46090;SDS011;31826;53.572;10.170;2023-11-22T05:21:53;13.40;;;5.93;;
46090;SDS011;31826;53.572;10.170;2023-11-22T05:24:18;13.40;;;5.85;;
46090;SDS011;31826;53.572;10.170;2023-11-22T05:26:44;12.05;;;5.30;;
46090;SDS011;31826;53.572;10.170;2023-11-22T05:29:10;11.38;;;4.82;;
46090;SDS011;31826;53.572;10.170;2023-11-22T05:31:36;12.10;;;5.10;;
46090;SDS011;31826;53.572;10.170;2023-11-22T05:34:02;9.75;;;4.40;;
46090;SDS011;31826;53.572;10.170;2023-11-22T05:36:29;11.68;;;4.82;;
46090;SDS011;31826;53.572;10.170;2023-11-22T05:38:55;9.87;;;4.47;;
46090;SDS011;31826;53.572;10.170;2023-11-22T05:41:24;9.82;;;4.30;;
46090;SDS011;31826;53.572;10.170;2023-11-22T05:43:51;11.10;;;4.82;;
46090;SDS011;31826;53.572;10.170;2023-11-22T05:46:17;10.80;;;5.05;;
46090;SDS011;31826;53.572;10.170;2023-11-22T05:48:48;11.38;;;5.28;;
46090;SDS011;31826;53.572;10.170;2023-11-22T05:51:15;16.83;;;5.40;;
46090;SDS011;31826;53.572;10.170;2023-11-22T05:53:41;12.50;;;5.43;;
46090;SDS011;31826;53.572;10.170;2023-11-22T05:56:06;11.43;;;5.20;;
46090;SDS011;31826;53.572;10.170;2023-11-22T05:58:34;10.53;;;4.77;;
46090;SDS011;31826;53.572;10.170;2023-11-22T06:01:03;10.38;;;4.50;;
46090;SDS011;31826;53.572;10.170;2023-11-22T06:03:29;10.23;;;4.40;;
46090;SDS011;31826;53.572;10.170;2023-11-22T06:05:55;9.90;;;4.32;;
46090;SDS011;31826;53.572;10.170;2023-11-22T06:08:22;9.25;;;4.00;;
46090;SDS011;31826;53.572;10.170;2023-11-22T06:10:48;8.60;;;4.20;;
46090;SDS011;31826;53.572;10.170;2023-11-22T06:13:14;9.73;;;4.00;;
46090;SDS011;31826;53.572;10.170;2023-11-22T06:15:40;10.73;;;4.50;;
46090;SDS011;31826;53.572;10.170;2023-11-22T06:18:05;13.87;;;5.23;;
46090;SDS011;31826;53.572;10.170;2023-11-22T06:20:31;11.18;;;4.70;;
46090;SDS011;31826;53.572;10.170;2023-11-22T06:22:58;10.68;;;4.53;;
46090;SDS011;31826;53.572;10.170;2023-11-22T06:25:23;10.73;;;4.47;;
46090;SDS011;31826;53.572;10.170;2023-11-22T06:27:49;10.10;;;4.40;;
46090;SDS011;31826;53.572;10.170;2023-11-22T06:30:15;10.93;;;4.57;;
46090;SDS011;31826;53.572;10.170;2023-11-22T06:32:41;9.35;;;4.20;;
46090;SDS011;31826;53.572;10.170;2023-11-22T06:35:08;10.25;;;4.07;;
46090;SDS011;31826;53.572;10.170;2023-11-22T06:37:35;10.70;;;4.57;;
46090;SDS011;31826;53.572;10.170;2023-11-22T06:40:01;11.07;;;4.40;;
46090;SDS011;31826;53.572;10.170;2023-11-22T06:42:27;12.20;;;5.03;;
46090;SDS011;31826;53.572;10.170;2023-11-22T06:44:52;12.50;;;5.33;;
46090;SDS011;31826;53.572;10.170;2023-11-22T06:47:19;14.38;;;5.80;;
46090;SDS011;31826;53.572;10.170;2023-11-22T06:52:19;14.93;;;6.60;;
46090;SDS011;31826;53.572;10.170;2023-11-22T06:54:44;16.37;;;7.60;;
46090;SDS011;31826;53.572;10.170;2023-11-22T06:57:10;15.50;;;7.20;;
46090;SDS011;31826;53.572;10.170;2023-11-22T06:59:36;20.30;;;9.40;;
46090;SDS011;31826;53.572;10.170;2023-11-22T07:02:01;16.77;;;6.80;;
46090;SDS011;31826;53.572;10.170;2023-11-22T07:04:28;11.40;;;5.32;;
46090;SDS011;31826;53.572;10.170;2023-11-22T07:06:54;10.23;;;4.72;;
46090;SDS011;31826;53.572;10.170;2023-11-22T07:09:20;12.17;;;5.60;;
46090;SDS011;31826;53.572;10.170;2023-11-22T07:11:45;13.40;;;5.10;;
46090;SDS011;31826;53.572;10.170;2023-11-22T07:14:11;12.77;;;4.70;;
46090;SDS011;31826;53.572;10.170;2023-11-22T07:16:37;12.10;;;4.90;;
46090;SDS011;31826;53.572;10.170;2023-11-22T07:19:03;12.37;;;4.93;;
46090;SDS011;31826;53.572;10.170;2023-11-22T07:21:29;12.73;;;4.63;;
46090;SDS011;31826;53.572;10.170;2023-11-22T07:23:55;13.73;;;4.88;;
46090;SDS011;31826;53.572;10.170;2023-11-22T07:26:21;11.73;;;5.82;;
46090;SDS011;31826;53.572;10.170;2023-11-22T07:28:47;15.40;;;5.70;;
46090;SDS011;31826;53.572;10.170;2023-11-22T07:31:12;14.77;;;6.30;;
46090;SDS011;31826;53.572;10.170;2023-11-22T07:33:39;16.08;;;6.05;;
46090;SDS011;31826;53.572;10.170;2023-11-22T07:36:05;12.90;;;6.13;;
46090;SDS011;31826;53.572;10.170;2023-11-22T07:38:31;13.23;;;6.03;;
46090;SDS011;31826;53.572;10.170;2023-11-22T07:40:57;13.70;;;5.70;;
46090;SDS011;31826;53.572;10.170;2023-11-22T07:43:23;15.85;;;5.93;;
46090;SDS011;31826;53.572;10.170;2023-11-22T07:45:49;14.60;;;5.83;;
46090;SDS011;31826;53.572;10.170;2023-11-22T07:48:16;12.32;;;5.38;;
46090;SDS011;31826;53.572;10.170;2023-11-22T07:50:41;13.50;;;5.93;;
46090;SDS011;31826;53.572;10.170;2023-11-22T07:53:09;11.05;;;5.15;;
46090;SDS011;31826;53.572;10.170;2023-11-22T07:55:37;14.05;;;6.47;;
46090;SDS011;31826;53.572;10.170;2023-11-22T07:58:03;14.80;;;6.30;;
46090;SDS011;31826;53.572;10.170;2023-11-22T08:00:31;12.93;;;5.82;;
46090;SDS011;31826;53.572;10.170;2023-11-22T08:02:59;11.60;;;5.25;;
46090;SDS011;31826;53.572;10.170;2023-11-22T08:05:27;11.90;;;5.10;;
46090;SDS011;31826;53.572;10.170;2023-11-22T08:07:54;12.52;;;5.10;;
46090;SDS011;31826;53.572;10.170;2023-11-22T08:10:19;11.13;;;5.03;;
46090;SDS011;31826;53.572;10.170;2023-11-22T08:12:46;10.60;;;4.90;;
46090;SDS011;31826;53.572;10.170;2023-11-22T08:15:13;10.43;;;5.18;;
46090;SDS011;31826;53.572;10.170;2023-11-22T08:17:42;11.43;;;5.93;;
46090;SDS011;31826;53.572;10.170;2023-11-22T08:20:08;14.70;;;5.28;;
46090;SDS011;31826;53.572;10.170;2023-11-22T08:22:39;14.38;;;5.10;;
46090;SDS011;31826;53.572;10.170;2023-11-22T08:25:06;11.50;;;5.65;;
46090;SDS011;31826;53.572;10.170;2023-11-22T08:27:33;11.68;;;5.40;;
46090;SDS011;31826;53.572;10.170;2023-11-22T08:29:59;10.75;;;5.35;;
46090;SDS011;31826;53.572;10.170;2023-11-22T08:32:30;10.85;;;5.15;;
46090;SDS011;31826;53.572;10.170;2023-11-22T08:34:57;14.45;;;5.25;;
46090;SDS011;31826;53.572;10.170;2023-11-22T08:37:23;11.90;;;4.93;;
46090;SDS011;31826;53.572;10.170;2023-11-22T08:39:49;10.60;;;5.00;;
46090;SDS011;31826;53.572;10.170;2023-11-22T08:42:15;12.95;;;5.57;;
46090;SDS011;31826;53.572;10.170;2023-11-22T08:44:41;12.23;;;5.57;;
46090;SDS011;31826;53.572;10.170;2023-11-22T08:47:06;10.27;;;4.55;;
46090;SDS011;31826;53.572;10.170;2023-11-22T08:49:33;14.50;;;5.40;;
46090;SDS011;31826;53.572;10.170;2023-11-22T08:51:59;12.53;;;5.53;;
46090;SDS011;31826;53.572;10.170;2023-11-22T08:54:27;11.93;;;5.28;;
46090;SDS011;31826;53.572;10.170;2023-11-22T08:56:55;12.82;;;5.95;;
46090;SDS011;31826;53.572;10.170;2023-11-22T08:59:25;11.48;;;5.07;;
46090;SDS011;31826;53.572;10.170;2023-11-22T09:01:51;12.65;;;5.75;;
46090;SDS011;31826;53.572;10.170;2023-11-22T09:04:17;12.20;;;5.10;;
46090;SDS011;31826;53.572;10.170;2023-11-22T09:06:43;12.57;;;5.22;;
46090;SDS011;31826;53.572;10.170;2023-11-22T09:09:09;11.40;;;5.55;;
46090;SDS011;31826;53.572;10.170;2023-11-22T09:11:40;12.25;;;5.68;;
46090;SDS011;31826;53.572;10.170;2023-11-22T09:14:06;11.43;;;5.23;;
46090;SDS011;31826;53.572;10.170;2023-11-22T09:16:35;12.80;;;5.43;;
46090;SDS011;31826;53.572;10.170;2023-11-22T09:19:04;11.15;;;5.15;;
46090;SDS011;31826;53.572;10.170;2023-11-22T09:21:33;12.77;;;5.55;;
46090;SDS011;31826;53.572;10.170;2023-11-22T09:24:00;12.57;;;5.70;;
46090;SDS011;31826;53.572;10.170;2023-11-22T09:26:26;15.37;;;5.77;;
46090;SDS011;31826;53.572;10.170;2023-11-22T09:28:51;12.47;;;5.97;;
46090;SDS011;31826;53.572;10.170;2023-11-22T09:31:18;12.65;;;5.53;;
46090;SDS011;31826;53.572;10.170;2023-11-22T09:33:45;15.35;;;7.00;;
46090;SDS011;31826;53.572;10.170;2023-11-22T09:36:15;12.90;;;6.03;;
46090;SDS011;31826;53.572;10.170;2023-11-22T09:38:40;16.40;;;6.85;;
46090;SDS011;31826;53.572;10.170;2023-11-22T09:41:06;17.20;;;7.00;;
46090;SDS011;31826;53.572;10.170;2023-11-22T09:43:33;17.23;;;6.82;;
46090;SDS011;31826;53.572;10.170;2023-11-22T09:45:59;15.05;;;6.65;;
46090;SDS011;31826;53.572;10.170;2023-11-22T09:48:25;13.23;;;6.65;;
46090;SDS011;31826;53.572;10.170;2023-11-22T09:51:15;14.40;;;6.43;;
46090;SDS011;31826;53.572;10.170;2023-11-22T09:54:04;11.98;;;6.05;;
46090;SDS011;31826;53.572;10.170;2023-11-22T09:56:32;13.15;;;5.72;;
46090;SDS011;31826;53.572;10.170;2023-11-22T09:59:01;11.70;;;5.82;;
46090;SDS011;31826;53.572;10.170;2023-11-22T10:01:29;13.87;;;6.23;;
46090;SDS011;31826;53.572;10.170;2023-11-22T10:03:56;14.05;;;6.13;;
46090;SDS011;31826;53.572;10.170;2023-11-22T10:06:23;13.23;;;5.97;;
46090;SDS011;31826;53.572;10.170;2023-11-22T10:08:49;13.23;;;6.20;;
46090;SDS011;31826;53.572;10.170;2023-11-22T10:11:16;14.80;;;6.22;;
46090;SDS011;31826;53.572;10.170;2023-11-22T10:13:43;14.45;;;6.68;;
46090;SDS011;31826;53.572;10.170;2023-11-22T10:16:12;13.90;;;6.13;;
46090;SDS011;31826;53.572;10.170;2023-11-22T10:18:44;11.93;;;5.40;;
46090;SDS011;31826;53.572;10.170;2023-11-22T10:21:29;12.03;;;5.60;;
46090;SDS011;31826;53.572;10.170;2023-11-22T10:23:56;12.38;;;5.40;;
46090;SDS011;31826;53.572;10.170;2023-11-22T10:26:23;12.77;;;5.57;;
46090;SDS011;31826;53.572;10.170;2023-11-22T10:28:52;13.90;;;5.95;;
46090;SDS011;31826;53.572;10.170;2023-11-22T10:31:19;14.05;;;6.03;;
46090;SDS011;31826;53.572;10.170;2023-11-22T10:33:46;12.25;;;5.20;;
46090;SDS011;31826;53.572;10.170;2023-11-22T10:36:13;12.02;;;5.70;;
46090;SDS011;31826;53.572;10.170;2023-11-22T10:38:40;13.50;;;5.53;;
46090;SDS011;31826;53.572;10.170;2023-11-22T10:41:07;13.50;;;5.20;;
46090;SDS011;31826;53.572;10.170;2023-11-22T10:43:37;12.45;;;5.55;;
46090;SDS011;31826;53.572;10.170;2023-11-22T10:46:04;14.82;;;6.13;;
46090;SDS011;31826;53.572;10.170;2023-11-22T10:48:31;14.52;;;6.20;;
46090;SDS011;31826;53.572;10.170;2023-11-22T10:51:01;13.55;;;5.65;;
46090;SDS011;31826;53.572;10.170;2023-11-22T10:53:36;10.90;;;4.93;;
46090;SDS011;31826;53.572;10.170;2023-11-22T10:58:40;12.10;;;4.80;;
46090;SDS011;31826;53.572;10.170;2023-11-22T11:01:17;10.57;;;4.20;;
46090;SDS011;31826;53.572;10.170;2023-11-22T11:04:00;10.73;;;4.30;;
46090;SDS011;31826;53.572;10.170;2023-11-22T11:06:32;11.43;;;4.30;;
46090;SDS011;31826;53.572;10.170;2023-11-22T11:09:03;8.57;;;4.33;;
46090;SDS011;31826;53.572;10.170;2023-11-22T11:11:36;11.52;;;3.88;;
46090;SDS011;31826;53.572;10.170;2023-11-22T11:14:04;11.20;;;4.57;;
46090;SDS011;31826;53.572;10.170;2023-11-22T11:16:32;12.45;;;4.90;;
46090;SDS011;31826;53.572;10.170;2023-11-22T11:19:02;9.23;;;3.90;;
46090;SDS011;31826;53.572;10.170;2023-11-22T11:21:32;9.02;;;4.30;;
46090;SDS011;31826;53.572;10.170;2023-11-22T11:23:58;11.20;;;3.95;;
46090;SDS011;31826;53.572;10.170;2023-11-22T11:26:28;9.95;;;4.07;;
46090;SDS011;31826;53.572;10.170;2023-11-22T11:28:56;8.70;;;4.13;;
46090;SDS011;31826;53.572;10.170;2023-11-22T11:31:22;8.53;;;3.27;;
46090;SDS011;31826;53.572;10.170;2023-11-22T11:38:54;8.20;;;3.60;;
46090;SDS011;31826;53.572;10.170;2023-11-22T11:41:31;8.18;;;3.58;;
46090;SDS011;31826;53.572;10.170;2023-11-22T11:43:57;8.73;;;3.97;;
46090;SDS011;31826;53.572;10.170;2023-11-22T11:46:24;14.75;;;4.40;;
46090;SDS011;31826;53.572;10.170;2023-11-22T11:48:52;13.05;;;4.50;;
46090;SDS011;31826;53.572;10.170;2023-11-22T11:51:19;11.02;;;4.05;;
46090;SDS011;31826;53.572;10.170;2023-11-22T11:53:47;13.85;;;4.10;;
46090;SDS011;31826;53.572;10.170;2023-11-22T11:56:14;9.73;;;4.20;;
46090;SDS011;31826;53.572;10.170;2023-11-22T11:58:40;9.02;;;3.72;;
46090;SDS011;31826;53.572;10.170;2023-11-22T12:01:14;11.20;;;4.90;;
46090;SDS011;31826;53.572;10.170;2023-11-22T12:03:46;10.23;;;4.17;;
46090;SDS011;31826;53.572;10.170;2023-11-22T12:06:18;9.70;;;3.93;;
46090;SDS011;31826;53.572;10.170;2023-11-22T12:08:44;9.60;;;3.88;;
46090;SDS011;31826;53.572;10.170;2023-11-22T12:11:12;10.02;;;4.38;;
46090;SDS011;31826;53.572;10.170;2023-11-22T12:13:38;8.23;;;3.72;;
46090;SDS011;31826;53.572;10.170;2023-11-22T12:16:08;8.75;;;2.97;;
46090;SDS011;31826;53.572;10.170;2023-11-22T12:18:42;6.18;;;2.70;;
46090;SDS011;31826;53.572;10.170;2023-11-22T12:21:08;7.30;;;2.78;;
46090;SDS011;31826;53.572;10.170;2023-11-22T12:23:41;8.50;;;2.85;;
46090;SDS011;31826;53.572;10.170;2023-11-22T12:26:17;7.33;;;3.50;;
46090;SDS011;31826;53.572;10.170;2023-11-22T12:28:45;5.95;;;2.53;;
46090;SDS011;31826;53.572;10.170;2023-11-22T12:31:15;4.60;;;2.10;;
46090;SDS011;31826;53.572;10.170;2023-11-22T12:33:41;3.75;;;1.90;;
46090;SDS011;31826;53.572;10.170;2023-11-22T12:36:08;9.18;;;2.80;;
46090;SDS011;31826;53.572;10.170;2023-11-22T12:38:35;5.93;;;2.40;;
46090;SDS011;31826;53.572;10.170;2023-11-22T12:41:02;5.03;;;2.50;;
46090;SDS011;31826;53.572;10.170;2023-11-22T12:43:32;5.43;;;2.30;;
46090;SDS011;31826;53.572;10.170;2023-11-22T12:46:02;4.35;;;2.05;;
46090;SDS011;31826;53.572;10.170;2023-11-22T12:48:29;6.45;;;2.50;;
46090;SDS011;31826;53.572;10.170;2023-11-22T12:50:56;5.85;;;2.40;;
46090;SDS011;31826;53.572;10.170;2023-11-22T12:53:22;4.47;;;2.35;;
46090;SDS011;31826;53.572;10.170;2023-11-22T12:55:51;4.33;;;2.10;;
46090;SDS011;31826;53.572;10.170;2023-11-22T12:58:19;4.60;;;2.10;;
46090;SDS011;31826;53.572;10.170;2023-11-22T13:00:47;4.70;;;2.08;;
46090;SDS011;31826;53.572;10.170;2023-11-22T13:03:14;3.78;;;2.00;;
46090;SDS011;31826;53.572;10.170;2023-11-22T13:05:41;3.40;;;1.92;;
46090;SDS011;31826;53.572;10.170;2023-11-22T13:08:08;3.47;;;1.98;;
46090;SDS011;31826;53.572;10.170;2023-11-22T13:10:37;3.42;;;1.80;;
46090;SDS011;31826;53.572;10.170;2023-11-22T13:13:04;3.42;;;1.90;;
46090;SDS011;31826;53.572;10.170;2023-11-22T13:15:29;4.47;;;2.10;;
46090;SDS011;31826;53.572;10.170;2023-11-22T13:17:55;3.73;;;1.60;;
46090;SDS011;31826;53.572;10.170;2023-11-22T13:20:22;4.20;;;1.70;;
46090;SDS011;31826;53.572;10.170;2023-11-22T13:22:48;4.00;;;1.42;;
46090;SDS011;31826;53.572;10.170;2023-11-22T13:25:14;3.60;;;1.60;;
46090;SDS011;31826;53.572;10.170;2023-11-22T13:27:42;6.22;;;2.50;;
46090;SDS011;31826;53.572;10.170;2023-11-22T13:30:08;5.22;;;2.15;;
46090;SDS011;31826;53.572;10.170;2023-11-22T13:32:34;6.03;;;2.10;;
46090;SDS011;31826;53.572;10.170;2023-11-22T13:35:00;2.83;;;1.70;;
46090;SDS011;31826;53.572;10.170;2023-11-22T13:37:26;4.65;;;2.10;;
46090;SDS011;31826;53.572;10.170;2023-11-22T13:39:52;9.25;;;3.42;;
46090;SDS011;31826;53.572;10.170;2023-11-22T13:42:18;7.27;;;2.40;;
46090;SDS011;31826;53.572;10.170;2023-11-22T13:44:44;10.10;;;2.93;;
46090;SDS011;31826;53.572;10.170;2023-11-22T13:47:10;6.43;;;3.00;;
46090;SDS011;31826;53.572;10.170;2023-11-22T13:49:36;9.98;;;3.00;;
46090;SDS011;31826;53.572;10.170;2023-11-22T13:52:04;8.07;;;2.55;;
46090;SDS011;31826;53.572;10.170;2023-11-22T13:54:30;5.28;;;1.98;;
46090;SDS011;31826;53.572;10.170;2023-11-22T13:57:02;4.93;;;2.30;;
46090;SDS011;31826;53.572;10.170;2023-11-22T13:59:29;3.60;;;2.00;;
46090;SDS011;31826;53.572;10.170;2023-11-22T14:01:54;2.90;;;1.43;;
46090;SDS011;31826;53.572;10.170;2023-11-22T14:04:20;3.13;;;1.43;;
46090;SDS011;31826;53.572;10.170;2023-11-22T14:06:46;2.77;;;1.43;;
46090;SDS011;31826;53.572;10.170;2023-11-22T14:09:11;3.47;;;1.60;;
46090;SDS011;31826;53.572;10.170;2023-11-22T14:11:39;3.28;;;1.55;;
46090;SDS011;31826;53.572;10.170;2023-11-22T14:14:05;3.00;;;1.50;;
46090;SDS011;31826;53.572;10.170;2023-11-22T14:16:31;3.10;;;1.73;;
46090;SDS011;31826;53.572;10.170;2023-11-22T14:18:56;3.03;;;1.48;;
46090;SDS011;31826;53.572;10.170;2023-11-22T14:21:25;2.90;;;1.52;;
46090;SDS011;31826;53.572;10.170;2023-11-22T14:23:50;4.27;;;1.77;;
46090;SDS011;31826;53.572;10.170;2023-11-22T14:26:18;5.22;;;2.08;;
46090;SDS011;31826;53.572;10.170;2023-11-22T14:28:43;10.05;;;4.63;;
46090;SDS011;31826;53.572;10.170;2023-11-22T14:31:09;5.88;;;2.40;;
46090;SDS011;31826;53.572;10.170;2023-11-22T14:33:35;4.57;;;2.28;;
46090;SDS011;31826;53.572;10.170;2023-11-22T14:36:01;4.53;;;1.90;;
46090;SDS011;31826;53.572;10.170;2023-11-22T14:38:27;4.65;;;1.92;;